sensor_id;sensor_type;location;lat;lon;timestamp;pressure;altitude;pressure_sealevel;temperature;humidity
8627;BME280;4351;51.422;6.794;2023-07-13T00:00:03;101384.19;;;18.53;100.00
8627;BME280;4351;51.422;6.794;2023-07-13T00:02:34;101391.88;;;18.59;100.00
8627;BME280;4351;51.422;6.794;2023-07-13T00:05:02;101397.28;;;18.38;100.00
8627;BME280;4351;51.422;6.794;2023-07-13T00:07:31;101396.44;;;18.26;100.00
8627;BME280;4351;51.422;6.794;2023-07-13T00:09:59;101393.59;;;18.16;100.00
8627;BME280;4351;51.422;6.794;2023-07-13T00:12:30;101397.47;;;18.02;100.00
8627;BME280;4351;51.422;6.794;2023-07-13T00:15:00;101405.78;;;18.00;100.00
8627;BME280;4351;51.422;6.794;2023-07-13T00:17:29;101400.56;;;17.97;100.00
8627;BME280;4351;51.422;6.794;2023-07-13T00:19:57;101393.84;;;18.24;100.00
8627;BME280;4351;51.422;6.794;2023-07-13T00:22:25;101392.84;;;18.25;100.00
8627;BME280;4351;51.422;6.794;2023-07-13T00:24:55;101388.47;;;18.34;100.00
8627;BME280;4351;51.422;6.794;2023-07-13T00:27:23;101382.97;;;18.46;100.00
8627;BME280;4351;51.422;6.794;2023-07-13T00:29:53;101383.53;;;18.61;100.00
8627;BME280;4351;51.422;6.794;2023-07-13T00:32:21;101381.25;;;18.45;100.00
8627;BME280;4351;51.422;6.794;2023-07-13T00:34:50;101384.25;;;18.42;100.00
8627;BME280;4351;51.422;6.794;2023-07-13T00:37:19;101380.03;;;18.37;100.00
8627;BME280;4351;51.422;6.794;2023-07-13T00:39:47;101385.75;;;18.34;100.00
8627;BME280;4351;51.422;6.794;2023-07-13T00:42:16;101393.19;;;18.32;100.00
8627;BME280;4351;51.422;6.794;2023-07-13T00:45:03;101385.38;;;18.27;100.00
8627;BME280;4351;51.422;6.794;2023-07-13T00:47:31;101387.66;;;18.22;100.00
8627;BME280;4351;51.422;6.794;2023-07-13T00:50:00;101382.91;;;18.36;100.00
8627;BME280;4351;51.422;6.794;2023-07-13T00:52:29;101387.88;;;18.31;100.00
8627;BME280;4351;51.422;6.794;2023-07-13T00:54:57;101386.63;;;18.35;100.00
8627;BME280;4351;51.422;6.794;2023-07-13T00:57:27;101380.94;;;18.26;100.00
8627;BME280;4351;51.422;6.794;2023-07-13T00:59:58;101391.84;;;18.26;100.00
8627;BME280;4351;51.422;6.794;2023-07-13T01:02:27;101384.66;;;18.14;100.00
8627;BME280;4351;51.422;6.794;2023-07-13T01:04:56;101393.34;;;18.19;100.00
8627;BME280;4351;51.422;6.794;2023-07-13T01:07:25;101396.84;;;18.10;100.00
8627;BME280;4351;51.422;6.794;2023-07-13T01:09:56;101402.31;;;17.98;100.00
8627;BME280;4351;51.422;6.794;2023-07-13T01:12:24;101397.59;;;18.12;100.00
8627;BME280;4351;51.422;6.794;2023-07-13T01:14:58;101397.81;;;18.09;100.00
8627;BME280;4351;51.422;6.794;2023-07-13T01:17:27;101392.63;;;17.94;100.00
8627;BME280;4351;51.422;6.794;2023-07-13T01:19:55;101391.16;;;17.90;100.00
8627;BME280;4351;51.422;6.794;2023-07-13T01:22:25;101397.88;;;17.86;100.00
8627;BME280;4351;51.422;6.794;2023-07-13T01:24:54;101391.91;;;17.92;100.00
8627;BME280;4351;51.422;6.794;2023-07-13T01:27:24;101394.75;;;17.79;100.00
8627;BME280;4351;51.422;6.794;2023-07-13T01:29:53;101391.91;;;17.69;100.00
8627;BME280;4351;51.422;6.794;2023-07-13T01:32:28;101394.63;;;17.69;100.00
8627;BME280;4351;51.422;6.794;2023-07-13T01:34:58;101400.81;;;17.71;100.00
8627;BME280;4351;51.422;6.794;2023-07-13T01:37:27;101394.41;;;17.72;100.00
8627;BME280;4351;51.422;6.794;2023-07-13T01:40:02;101403.31;;;17.74;100.00
8627;BME280;4351;51.422;6.794;2023-07-13T01:42:30;101397.13;;;17.72;100.00
8627;BME280;4351;51.422;6.794;2023-07-13T01:44:58;101390.91;;;17.81;100.00
8627;BME280;4351;51.422;6.794;2023-07-13T01:47:29;101391.91;;;17.69;100.00
8627;BME280;4351;51.422;6.794;2023-07-13T01:49:57;101394.63;;;17.69;100.00
8627;BME280;4351;51.422;6.794;2023-07-13T01:52:26;101395.38;;;17.71;100.00
8627;BME280;4351;51.422;6.794;2023-07-13T01:54:54;101398.59;;;17.76;100.00
8627;BME280;4351;51.422;6.794;2023-07-13T01:57:22;101397.22;;;17.70;100.00
8627;BME280;4351;51.422;6.794;2023-07-13T01:59:50;101404.06;;;17.65;100.00
8627;BME280;4351;51.422;6.794;2023-07-13T02:02:19;101398.84;;;17.62;100.00
8627;BME280;4351;51.422;6.794;2023-07-13T02:04:47;101403.56;;;17.71;100.00
8627;BME280;4351;51.422;6.794;2023-07-13T02:07:14;101407.53;;;17.55;100.00
8627;BME280;4351;51.422;6.794;2023-07-13T02:09:45;101404.03;;;17.53;100.00
8627;BME280;4351;51.422;6.794;2023-07-13T02:12:13;101401.94;;;17.45;100.00
8627;BME280;4351;51.422;6.794;2023-07-13T02:14:40;101405.06;;;17.52;100.00
8627;BME280;4351;51.422;6.794;2023-07-13T02:17:09;101400.34;;;17.54;100.00
8627;BME280;4351;51.422;6.794;2023-07-13T02:19:37;101403.53;;;17.60;100.00
8627;BME280;4351;51.422;6.794;2023-07-13T02:22:05;101404.81;;;17.44;100.00
8627;BME280;4351;51.422;6.794;2023-07-13T02:24:33;101405.53;;;17.34;100.00
8627;BME280;4351;51.422;6.794;2023-07-13T02:27:02;101408.78;;;17.40;100.00
8627;BME280;4351;51.422;6.794;2023-07-13T02:29:30;101407.50;;;17.32;100.00
8627;BME280;4351;51.422;6.794;2023-07-13T02:31:59;101407.25;;;17.35;100.00
8627;BME280;4351;51.422;6.794;2023-07-13T02:34:26;101412.09;;;17.32;100.00
8627;BME280;4351;51.422;6.794;2023-07-13T02:36:58;101413.09;;;17.31;100.00
8627;BME280;4351;51.422;6.794;2023-07-13T02:39:26;101414.84;;;17.07;100.00
8627;BME280;4351;51.422;6.794;2023-07-13T02:41:54;101415.84;;;17.06;100.00
8627;BME280;4351;51.422;6.794;2023-07-13T02:44:23;101418.06;;;17.01;100.00
8627;BME280;4351;51.422;6.794;2023-07-13T02:46:51;101414.63;;;17.10;100.00
8627;BME280;4351;51.422;6.794;2023-07-13T02:49:19;101404.53;;;17.24;100.00
8627;BME280;4351;51.422;6.794;2023-07-13T02:51:47;101410.47;;;17.18;100.00
8627;BME280;4351;51.422;6.794;2023-07-13T02:54:15;101408.84;;;17.27;100.00
8627;BME280;4351;51.422;6.794;2023-07-13T02:56:43;101412.41;;;17.16;100.00
8627;BME280;4351;51.422;6.794;2023-07-13T02:59:11;101421.03;;;16.98;100.00
8627;BME280;4351;51.422;6.794;2023-07-13T03:01:41;101410.22;;;16.96;100.00
8627;BME280;4351;51.422;6.794;2023-07-13T03:04:08;101411.09;;;16.97;100.00
8627;BME280;4351;51.422;6.794;2023-07-13T03:06:37;101414.22;;;17.04;100.00
8627;BME280;4351;51.422;6.794;2023-07-13T03:09:05;101411.50;;;17.04;100.00
8627;BME280;4351;51.422;6.794;2023-07-13T03:11:35;101416.03;;;16.92;100.00
8627;BME280;4351;51.422;6.794;2023-07-13T03:14:12;101416.25;;;16.77;100.00
8627;BME280;4351;51.422;6.794;2023-07-13T03:16:42;101414.88;;;16.83;100.00
8627;BME280;4351;51.422;6.794;2023-07-13T03:19:11;101411.41;;;16.81;100.00
8627;BME280;4351;51.422;6.794;2023-07-13T03:21:41;101422.38;;;16.67;100.00
8627;BME280;4351;51.422;6.794;2023-07-13T03:24:09;101429.31;;;16.60;100.00
8627;BME280;4351;51.422;6.794;2023-07-13T03:26:38;101437.06;;;16.78;100.00
8627;BME280;4351;51.422;6.794;2023-07-13T03:29:05;101434.69;;;16.73;100.00
8627;BME280;4351;51.422;6.794;2023-07-13T03:31:35;101433.00;;;16.59;100.00
8627;BME280;4351;51.422;6.794;2023-07-13T03:34:05;101427.81;;;16.56;100.00
8627;BME280;4351;51.422;6.794;2023-07-13T03:36:34;101429.81;;;16.65;100.00
8627;BME280;4351;51.422;6.794;2023-07-13T03:39:06;101431.91;;;16.62;100.00
8627;BME280;4351;51.422;6.794;2023-07-13T03:41:45;101438.78;;;16.54;100.00
8627;BME280;4351;51.422;6.794;2023-07-13T03:44:15;101441.16;;;16.59;100.00
8627;BME280;4351;51.422;6.794;2023-07-13T03:46:43;101444.41;;;16.64;100.00
8627;BME280;4351;51.422;6.794;2023-07-13T03:49:14;101446.16;;;16.65;100.00
8627;BME280;4351;51.422;6.794;2023-07-13T03:51:42;101451.72;;;16.64;100.00
8627;BME280;4351;51.422;6.794;2023-07-13T03:54:10;101448.38;;;16.60;100.00
8627;BME280;4351;51.422;6.794;2023-07-13T03:56:39;101451.44;;;16.55;100.00
8627;BME280;4351;51.422;6.794;2023-07-13T03:59:08;101451.84;;;16.62;100.00
8627;BME280;4351;51.422;6.794;2023-07-13T04:01:36;101442.16;;;16.58;100.00
8627;BME280;4351;51.422;6.794;2023-07-13T04:04:04;101454.84;;;16.71;100.00
8627;BME280;4351;51.422;6.794;2023-07-13T04:06:33;101445.69;;;16.72;100.00
8627;BME280;4351;51.422;6.794;2023-07-13T04:09:03;101446.47;;;16.74;100.00
8627;BME280;4351;51.422;6.794;2023-07-13T04:11:32;101447.22;;;16.76;100.00
8627;BME280;4351;51.422;6.794;2023-07-13T04:14:02;101461.19;;;16.83;100.00
8627;BME280;4351;51.422;6.794;2023-07-13T04:16:31;101455.88;;;16.81;100.00
8627;BME280;4351;51.422;6.794;2023-07-13T04:18:59;101460.63;;;16.91;100.00
8627;BME280;4351;51.422;6.794;2023-07-13T04:21:29;101453.53;;;17.12;100.00
8627;BME280;4351;51.422;6.794;2023-07-13T04:23:59;101466.63;;;16.96;100.00
8627;BME280;4351;51.422;6.794;2023-07-13T04:26:27;101460.16;;;16.97;100.00
8627;BME280;4351;51.422;6.794;2023-07-13T04:28:55;101462.81;;;16.85;100.00
8627;BME280;4351;51.422;6.794;2023-07-13T04:31:23;101460.91;;;16.99;100.00
8627;BME280;4351;51.422;6.794;2023-07-13T04:33:51;101463.56;;;16.87;100.00
8627;BME280;4351;51.422;6.794;2023-07-13T04:36:19;101471.72;;;16.76;100.00
8627;BME280;4351;51.422;6.794;2023-07-13T04:38:47;101462.34;;;16.80;100.00
8627;BME280;4351;51.422;6.794;2023-07-13T04:41:17;101469.56;;;16.93;100.00
8627;BME280;4351;51.422;6.794;2023-07-13T04:43:45;101464.59;;;16.86;100.00
8627;BME280;4351;51.422;6.794;2023-07-13T04:46:15;101465.09;;;16.92;100.00
8627;BME280;4351;51.422;6.794;2023-07-13T04:48:44;101460.34;;;16.82;100.00
8627;BME280;4351;51.422;6.794;2023-07-13T04:51:12;101462.25;;;16.93;100.00
8627;BME280;4351;51.422;6.794;2023-07-13T04:53:39;101461.94;;;17.09;100.00
8627;BME280;4351;51.422;6.794;2023-07-13T04:56:07;101455.06;;;17.17;100.00
8627;BME280;4351;51.422;6.794;2023-07-13T04:58:37;101456.34;;;16.99;100.00
8627;BME280;4351;51.422;6.794;2023-07-13T05:01:07;101464.47;;;16.88;100.00
8627;BME280;4351;51.422;6.794;2023-07-13T05:03:36;101466.84;;;16.93;100.00
8627;BME280;4351;51.422;6.794;2023-07-13T05:06:06;101464.09;;;16.93;100.00
8627;BME280;4351;51.422;6.794;2023-07-13T05:08:36;101470.53;;;16.92;100.00
8627;BME280;4351;51.422;6.794;2023-07-13T05:11:04;101476.03;;;17.03;100.00
8627;BME280;4351;51.422;6.794;2023-07-13T05:13:34;101476.56;;;17.08;100.00
8627;BME280;4351;51.422;6.794;2023-07-13T05:16:04;101471.81;;;16.99;100.00
8627;BME280;4351;51.422;6.794;2023-07-13T05:18:34;101478.22;;;16.86;100.00
8627;BME280;4351;51.422;6.794;2023-07-13T05:21:05;101475.75;;;16.95;100.00
8627;BME280;4351;51.422;6.794;2023-07-13T05:23:34;101476.56;;;17.08;100.00
8627;BME280;4351;51.422;6.794;2023-07-13T05:26:03;101470.31;;;17.19;100.00
8627;BME280;4351;51.422;6.794;2023-07-13T05:28:36;101477.66;;;17.30;100.00
8627;BME280;4351;51.422;6.794;2023-07-13T05:31:07;101482.09;;;17.31;100.00
8627;BME280;4351;51.422;6.794;2023-07-13T05:33:36;101482.41;;;17.40;100.00
8627;BME280;4351;51.422;6.794;2023-07-13T05:36:04;101489.03;;;17.35;100.00
8627;BME280;4351;51.422;6.794;2023-07-13T05:38:32;101489.78;;;17.26;100.00
8627;BME280;4351;51.422;6.794;2023-07-13T05:41:01;101507.59;;;17.19;100.00
8627;BME280;4351;51.422;6.794;2023-07-13T05:43:31;101501.44;;;17.28;100.00
8627;BME280;4351;51.422;6.794;2023-07-13T05:45:59;101502.81;;;17.34;100.00
8627;BME280;4351;51.422;6.794;2023-07-13T05:48:28;101508.16;;;17.11;100.00
8627;BME280;4351;51.422;6.794;2023-07-13T05:50:56;101515.94;;;17.04;100.00
8627;BME280;4351;51.422;6.794;2023-07-13T05:53:24;101511.00;;;17.09;100.00
8627;BME280;4351;51.422;6.794;2023-07-13T05:55:54;101509.41;;;17.43;100.00
8627;BME280;4351;51.422;6.794;2023-07-13T05:58:23;101515.81;;;17.30;100.00
8627;BME280;4351;51.422;6.794;2023-07-13T06:00:59;101520.69;;;17.14;100.00
8627;BME280;4351;51.422;6.794;2023-07-13T06:03:29;101519.72;;;17.15;100.00
8627;BME280;4351;51.422;6.794;2023-07-13T06:05:57;101518.38;;;17.20;100.00
8627;BME280;4351;51.422;6.794;2023-07-13T06:08:27;101526.59;;;17.32;100.00
8627;BME280;4351;51.422;6.794;2023-07-13T06:10:55;101525.91;;;17.41;100.00
8627;BME280;4351;51.422;6.794;2023-07-13T06:13:28;101534.97;;;17.42;100.00
8627;BME280;4351;51.422;6.794;2023-07-13T06:15:56;101530.47;;;17.41;100.00
8627;BME280;4351;51.422;6.794;2023-07-13T06:18:24;101527.31;;;17.58;100.00
8627;BME280;4351;51.422;6.794;2023-07-13T06:20:53;101530.44;;;17.77;100.00
8627;BME280;4351;51.422;6.794;2023-07-13T06:23:21;101534.75;;;17.56;100.00
8627;BME280;4351;51.422;6.794;2023-07-13T06:25:49;101536.94;;;17.40;100.00
8627;BME280;4351;51.422;6.794;2023-07-13T06:28:16;101544.84;;;17.43;100.00
8627;BME280;4351;51.422;6.794;2023-07-13T06:30:44;101542.66;;;17.60;100.00
8627;BME280;4351;51.422;6.794;2023-07-13T06:33:12;101533.00;;;17.55;100.00
8627;BME280;4351;51.422;6.794;2023-07-13T06:35:40;101542.19;;;17.54;100.00
8627;BME280;4351;51.422;6.794;2023-07-13T06:38:09;101544.38;;;17.49;100.00
8627;BME280;4351;51.422;6.794;2023-07-13T06:40:37;101538.22;;;17.58;100.00
8627;BME280;4351;51.422;6.794;2023-07-13T06:43:05;101545.94;;;17.76;100.00
8627;BME280;4351;51.422;6.794;2023-07-13T06:45:36;101540.50;;;17.76;100.00
8627;BME280;4351;51.422;6.794;2023-07-13T06:48:07;101548.97;;;18.08;100.00
8627;BME280;4351;51.422;6.794;2023-07-13T06:50:35;101535.69;;;18.26;100.00
8627;BME280;4351;51.422;6.794;2023-07-13T06:53:03;101538.06;;;18.08;100.00
8627;BME280;4351;51.422;6.794;2023-07-13T06:55:33;101545.97;;;18.11;100.00
8627;BME280;4351;51.422;6.794;2023-07-13T06:58:00;101551.69;;;18.08;100.00
8627;BME280;4351;51.422;6.794;2023-07-13T07:00:28;101558.13;;;18.07;100.00
8627;BME280;4351;51.422;6.794;2023-07-13T07:02:56;101553.53;;;17.96;100.00
8627;BME280;4351;51.422;6.794;2023-07-13T07:05:24;101566.81;;;18.00;100.00
8627;BME280;4351;51.422;6.794;2023-07-13T07:07:54;101565.72;;;18.03;100.00
8627;BME280;4351;51.422;6.794;2023-07-13T07:10:22;101561.66;;;18.20;100.00
8627;BME280;4351;51.422;6.794;2023-07-13T07:12:51;101569.28;;;18.03;100.00
8627;BME280;4351;51.422;6.794;2023-07-13T07:15:19;101568.31;;;18.04;100.00
8627;BME280;4351;51.422;6.794;2023-07-13T07:17:47;101568.97;;;18.20;100.00
8627;BME280;4351;51.422;6.794;2023-07-13T07:20:15;101567.94;;;18.09;100.00
8627;BME280;4351;51.422;6.794;2023-07-13T07:22:43;101563.13;;;18.24;100.00
8627;BME280;4351;51.422;6.794;2023-07-13T07:25:11;101576.88;;;18.11;100.00
8627;BME280;4351;51.422;6.794;2023-07-13T07:27:39;101565.44;;;18.06;100.00
8627;BME280;4351;51.422;6.794;2023-07-13T07:30:12;101577.50;;;18.15;100.00
8627;BME280;4351;51.422;6.794;2023-07-13T07:32:43;101569.22;;;18.51;100.00
8627;BME280;4351;51.422;6.794;2023-07-13T07:35:14;101568.97;;;18.20;100.00
8627;BME280;4351;51.422;6.794;2023-07-13T07:37:42;101574.69;;;18.40;100.00
8627;BME280;4351;51.422;6.794;2023-07-13T07:40:13;101573.31;;;18.22;100.00
8627;BME280;4351;51.422;6.794;2023-07-13T07:42:43;101574.78;;;18.49;100.00
8627;BME280;4351;51.422;6.794;2023-07-13T07:45:13;101578.28;;;18.29;100.00
8627;BME280;4351;51.422;6.794;2023-07-13T07:47:41;101577.91;;;18.22;100.00
8627;BME280;4351;51.422;6.794;2023-07-13T07:50:09;101575.31;;;18.20;100.00
8627;BME280;4351;51.422;6.794;2023-07-13T07:52:37;101578.28;;;18.29;100.00
8627;BME280;4351;51.422;6.794;2023-07-13T07:55:07;101567.59;;;18.37;100.00
8627;BME280;4351;51.422;6.794;2023-07-13T07:57:38;101571.31;;;18.47;100.00
8627;BME280;4351;51.422;6.794;2023-07-13T08:00:09;101568.72;;;18.34;100.00
8627;BME280;4351;51.422;6.794;2023-07-13T08:02:44;101582.75;;;18.18;100.00
8627;BME280;4351;51.422;6.794;2023-07-13T08:05:15;101569.97;;;18.30;100.00
8627;BME280;4351;51.422;6.794;2023-07-13T08:07:45;101574.31;;;18.44;100.00
8627;BME280;4351;51.422;6.794;2023-07-13T08:10:13;101578.88;;;18.32;100.00
8627;BME280;4351;51.422;6.794;2023-07-13T08:12:41;101569.22;;;18.40;100.00
8627;BME280;4351;51.422;6.794;2023-07-13T08:15:29;101569.81;;;18.66;100.00
8627;BME280;4351;51.422;6.794;2023-07-13T08:17:58;101559.34;;;18.83;100.00
8627;BME280;4351;51.422;6.794;2023-07-13T08:20:26;101551.94;;;18.62;100.00
8627;BME280;4351;51.422;6.794;2023-07-13T08:22:54;101561.59;;;18.78;100.00
8627;BME280;4351;51.422;6.794;2023-07-13T08:25:22;101553.13;;;18.81;100.00
8627;BME280;4351;51.422;6.794;2023-07-13T08:27:50;101555.84;;;18.92;100.00
8627;BME280;4351;51.422;6.794;2023-07-13T08:30:18;101558.75;;;18.79;100.00
8627;BME280;4351;51.422;6.794;2023-07-13T08:32:46;101563.00;;;19.05;100.00
8627;BME280;4351;51.422;6.794;2023-07-13T08:35:15;101552.34;;;19.02;100.00
8627;BME280;4351;51.422;6.794;2023-07-13T08:37:43;101558.56;;;18.92;100.00
8627;BME280;4351;51.422;6.794;2023-07-13T08:40:12;101557.53;;;19.05;100.00
8627;BME280;4351;51.422;6.794;2023-07-13T08:42:44;101548.47;;;19.16;100.00
8627;BME280;4351;51.422;6.794;2023-07-13T08:45:21;101553.06;;;19.15;100.00
8627;BME280;4351;51.422;6.794;2023-07-13T08:47:53;101554.66;;;19.18;100.00
8627;BME280;4351;51.422;6.794;2023-07-13T08:50:27;101550.81;;;19.21;100.00
8627;BME280;4351;51.422;6.794;2023-07-13T08:52:59;101555.28;;;19.10;100.00
8627;BME280;4351;51.422;6.794;2023-07-13T08:55:32;101550.56;;;19.24;100.00
8627;BME280;4351;51.422;6.794;2023-07-13T08:58:05;101546.81;;;19.25;100.00
8627;BME280;4351;51.422;6.794;2023-07-13T09:00:43;101547.19;;;19.20;100.00
8627;BME280;4351;51.422;6.794;2023-07-13T09:03:20;101547.94;;;19.22;100.00
8627;BME280;4351;51.422;6.794;2023-07-13T09:05:54;101551.34;;;19.36;100.00
8627;BME280;4351;51.422;6.794;2023-07-13T09:08:47;101552.69;;;19.09;100.00
8627;BME280;4351;51.422;6.794;2023-07-13T09:11:29;101551.00;;;19.29;100.00
8627;BME280;4351;51.422;6.794;2023-07-13T09:14:11;101551.50;;;19.34;100.00
8627;BME280;4351;51.422;6.794;2023-07-13T09:16:46;101558.38;;;19.50;100.00
8627;BME280;4351;51.422;6.794;2023-07-13T09:19:20;101554.38;;;19.54;100.00
8627;BME280;4351;51.422;6.794;2023-07-13T09:21:52;101557.66;;;19.48;100.00
8627;BME280;4351;51.422;6.794;2023-07-13T09:24:29;101558.25;;;19.73;100.00
8627;BME280;4351;51.422;6.794;2023-07-13T09:26:58;101567.91;;;19.77;100.00
8627;BME280;4351;51.422;6.794;2023-07-13T09:29:29;101559.38;;;19.92;100.00
8627;BME280;4351;51.422;6.794;2023-07-13T09:32:02;101559.09;;;19.95;100.00
8627;BME280;4351;51.422;6.794;2023-07-13T09:34:32;101552.44;;;19.87;100.00
8627;BME280;4351;51.422;6.794;2023-07-13T09:37:03;101556.81;;;20.00;100.00
8627;BME280;4351;51.422;6.794;2023-07-13T09:39:34;101549.72;;;20.19;100.00
8627;BME280;4351;51.422;6.794;2023-07-13T09:42:07;101555.75;;;20.13;100.00
8627;BME280;4351;51.422;6.794;2023-07-13T09:44:51;101543.69;;;20.25;100.00
8627;BME280;4351;51.422;6.794;2023-07-13T09:47:22;101549.16;;;20.25;100.00
8627;BME280;4351;51.422;6.794;2023-07-13T09:49:55;101555.81;;;20.23;100.00
8627;BME280;4351;51.422;6.794;2023-07-13T09:52:40;101560.69;;;19.97;100.00
8627;BME280;4351;51.422;6.794;2023-07-13T09:55:24;101556.41;;;20.05;100.00
8627;BME280;4351;51.422;6.794;2023-07-13T09:57:52;101565.44;;;19.95;100.00
8627;BME280;4351;51.422;6.794;2023-07-13T10:00:23;101567.72;;;19.90;100.00
8627;BME280;4351;51.422;6.794;2023-07-13T10:03:03;101564.63;;;20.26;100.00
8627;BME280;4351;51.422;6.794;2023-07-13T10:05:39;101559.41;;;20.23;100.00
8627;BME280;4351;51.422;6.794;2023-07-13T10:08:24;101566.81;;;20.32;100.00
8627;BME280;4351;51.422;6.794;2023-07-13T10:10:59;101568.88;;;20.50;100.00
8627;BME280;4351;51.422;6.794;2023-07-13T10:13:30;101565.41;;;20.48;100.00
8627;BME280;4351;51.422;6.794;2023-07-13T10:15:59;101569.41;;;20.34;100.00
8627;BME280;4351;51.422;6.794;2023-07-13T10:18:38;101577.19;;;20.39;100.00
8627;BME280;4351;51.422;6.794;2023-07-13T10:21:13;101569.88;;;20.49;100.00
8627;BME280;4351;51.422;6.794;2023-07-13T10:23:50;101565.41;;;20.48;100.00
8627;BME280;4351;51.422;6.794;2023-07-13T10:26:22;101567.66;;;20.74;100.00
8627;BME280;4351;51.422;6.794;2023-07-13T10:28:54;101568.69;;;20.93;100.00
8627;BME280;4351;51.422;6.794;2023-07-13T10:31:24;101561.66;;;21.00;100.00
8627;BME280;4351;51.422;6.794;2023-07-13T10:33:52;101560.25;;;21.16;100.00
8627;BME280;4351;51.422;6.794;2023-07-13T10:36:30;101559.53;;;21.14;100.00
8627;BME280;4351;51.422;6.794;2023-07-13T10:39:03;101559.22;;;21.47;100.00
8627;BME280;4351;51.422;6.794;2023-07-13T10:41:36;101569.06;;;21.30;100.00
8627;BME280;4351;51.422;6.794;2023-07-13T10:44:12;101569.47;;;21.35;100.00
8627;BME280;4351;51.422;6.794;2023-07-13T10:46:44;101574.97;;;21.25;100.00
8627;BME280;4351;51.422;6.794;2023-07-13T10:49:14;101571.22;;;21.36;100.00
8627;BME280;4351;51.422;6.794;2023-07-13T10:51:42;101562.69;;;21.39;100.00
8627;BME280;4351;51.422;6.794;2023-07-13T10:54:15;101561.38;;;21.33;100.00
8627;BME280;4351;51.422;6.794;2023-07-13T10:56:48;101561.25;;;21.25;100.00
8627;BME280;4351;51.422;6.794;2023-07-13T10:59:19;101561.97;;;21.17;100.00
8627;BME280;4351;51.422;6.794;2023-07-13T11:01:56;101573.75;;;20.88;100.00
8627;BME280;4351;51.422;6.794;2023-07-13T11:04:26;101572.50;;;21.12;100.00
8627;BME280;4351;51.422;6.794;2023-07-13T11:06:57;101576.44;;;21.19;100.00
8627;BME280;4351;51.422;6.794;2023-07-13T11:09:35;101584.34;;;21.22;100.00
8627;BME280;4351;51.422;6.794;2023-07-13T11:14:37;101563.84;;;21.46;100.00
8627;BME280;4351;51.422;6.794;2023-07-13T11:17:33;101569.31;;;21.66;100.00
8627;BME280;4351;51.422;6.794;2023-07-13T11:20:20;101560.69;;;21.41;100.00
8627;BME280;4351;51.422;6.794;2023-07-13T11:22:50;101556.03;;;21.52;100.00
8627;BME280;4351;51.422;6.794;2023-07-13T11:25:28;101559.91;;;21.59;100.00
8627;BME280;4351;51.422;6.794;2023-07-13T11:28:16;101563.38;;;21.61;100.00
8627;BME280;4351;51.422;6.794;2023-07-13T11:30:48;101549.31;;;22.04;100.00
8627;BME280;4351;51.422;6.794;2023-07-13T11:33:18;101553.72;;;21.67;100.00
8627;BME280;4351;51.422;6.794;2023-07-13T11:35:51;101548.78;;;21.70;100.00
8627;BME280;4351;51.422;6.794;2023-07-13T11:38:24;101550.53;;;21.71;100.00
8627;BME280;4351;51.422;6.794;2023-07-13T11:41:01;101549.06;;;21.77;100.00
8627;BME280;4351;51.422;6.794;2023-07-13T11:43:30;101543.59;;;21.87;100.00
8627;BME280;4351;51.422;6.794;2023-07-13T11:46:13;101538.34;;;21.94;100.00
8627;BME280;4351;51.422;6.794;2023-07-13T11:48:42;101539.31;;;22.13;100.00
8627;BME280;4351;51.422;6.794;2023-07-13T11:51:19;101536.00;;;22.37;100.00
8627;BME280;4351;51.422;6.794;2023-07-13T11:53:50;101531.34;;;22.38;100.00
8627;BME280;4351;51.422;6.794;2023-07-13T11:56:24;101526.94;;;22.55;100.00
8627;BME280;4351;51.422;6.794;2023-07-13T11:58:54;101524.94;;;22.47;100.00
8627;BME280;4351;51.422;6.794;2023-07-13T12:01:25;101533.75;;;22.51;100.00
8627;BME280;4351;51.422;6.794;2023-07-13T12:03:56;101533.47;;;22.26;100.00
8627;BME280;4351;51.422;6.794;2023-07-13T12:06:27;101536.97;;;22.46;100.00
8627;BME280;4351;51.422;6.794;2023-07-13T12:08:56;101532.94;;;22.40;100.00
8627;BME280;4351;51.422;6.794;2023-07-13T12:11:27;101531.25;;;22.30;100.00
8627;BME280;4351;51.422;6.794;2023-07-13T12:13:55;101539.66;;;22.28;100.00
8627;BME280;4351;51.422;6.794;2023-07-13T12:16:27;101534.38;;;22.45;100.00
8627;BME280;4351;51.422;6.794;2023-07-13T12:18:56;101529.66;;;22.37;100.00
8627;BME280;4351;51.422;6.794;2023-07-13T12:21:30;101527.25;;;22.52;100.00
8627;BME280;4351;51.422;6.794;2023-07-13T12:23:59;101525.75;;;22.58;100.00
8627;BME280;4351;51.422;6.794;2023-07-13T12:26:31;101541.00;;;22.24;100.00
8627;BME280;4351;51.422;6.794;2023-07-13T12:29:00;101533.41;;;22.36;100.00
8627;BME280;4351;51.422;6.794;2023-07-13T12:31:35;101524.31;;;22.35;100.00
8627;BME280;4351;51.422;6.794;2023-07-13T12:34:07;101538.13;;;22.15;100.00
8627;BME280;4351;51.422;6.794;2023-07-13T12:36:40;101532.69;;;22.34;100.00
8627;BME280;4351;51.422;6.794;2023-07-13T12:39:14;101539.81;;;22.26;100.00
8627;BME280;4351;51.422;6.794;2023-07-13T12:41:44;101538.50;;;21.92;100.00
8627;BME280;4351;51.422;6.794;2023-07-13T12:44:16;101551.53;;;21.70;100.00
8627;BME280;4351;51.422;6.794;2023-07-13T12:46:52;101554.31;;;21.61;100.00
8627;BME280;4351;51.422;6.794;2023-07-13T12:49:26;101558.63;;;21.53;100.00
8627;BME280;4351;51.422;6.794;2023-07-13T12:52:00;101550.53;;;21.71;100.00
8627;BME280;4351;51.422;6.794;2023-07-13T12:54:29;101549.63;;;21.81;100.00
8627;BME280;4351;51.422;6.794;2023-07-13T12:56:59;101553.06;;;21.83;100.00
8627;BME280;4351;51.422;6.794;2023-07-13T12:59:31;101568.72;;;21.82;100.00
8627;BME280;4351;51.422;6.794;2023-07-13T13:02:21;101584.78;;;21.87;100.00
8627;BME280;4351;51.422;6.794;2023-07-13T13:04:51;101590.41;;;21.46;100.00
8627;BME280;4351;51.422;6.794;2023-07-13T13:07:21;101596.03;;;21.24;100.00
8627;BME280;4351;51.422;6.794;2023-07-13T13:09:49;101591.13;;;21.18;100.00
8627;BME280;4351;51.422;6.794;2023-07-13T13:12:19;101598.22;;;21.21;100.00
8627;BME280;4351;51.422;6.794;2023-07-13T13:14:47;101588.09;;;21.31;100.00
8627;BME280;4351;51.422;6.794;2023-07-13T13:17:19;101579.31;;;21.47;100.00
8627;BME280;4351;51.422;6.794;2023-07-13T13:19:47;101574.34;;;21.71;100.00